Aérodrome :
LOGIN :

S'inscrire | Disclaimer

   EN    FR    IT 

 










Légende :    VFR   VFR Marginal   IFR   IFR Intensif   IFR Très Intensif
Visi : 
Plafond : 
>= 8 km
>= 3000ft
5 à 8 km
1000 à 3000 ft
1500m à 5 km
500 à 1000 ft
800 à 1500m
200 à 500 ft
< 800m
< 200 ft
Symboles :   Orages  Brouillard  Fortes neiges  Fortes précipitations  Vent > 20 kt
SIGMETs :   Divers  Orages  Givrage  Turbulence  Onde Orograph.  Cendres Volcan.







- Altitude de l'aérodrome : 220 ft
- Code IATA : CWL
- Voir les cartes d'approche


EGFF - Cardiff Rhoose

DERNIER METAR :
  • 180050Z AUTO 36005KT 9999 NCD 08/07 Q1024

METARs EXPIRÉS :
  • 180020Z AUTO 35005KT 9999 NCD 08/08 Q1024
  • 172350Z AUTO 33010KT 9999 NCD 09/09 Q1023
  • 172320Z 33009KT 8000 SCT003 09/09 Q1023
  • 172250Z 31012KT 6000 BKN003 10/10 Q1022
  • 172220Z AUTO 31013KT 6000 OVC002 10/10 Q1022

TAF TAF EGFF
Valide du 18 à 00h jusqu'au 19 à 00h UTC


172259Z 1800/1824 33006KT 6000 BKN004
BECMG 1800/1802 9999 FEW030
ATIS : +44 1446 729 319
Pas de NOTAMs connus pour ce terrain.



MET'MAP, la Météo Aéronautique d'un coup d'oeil ! - Copyright ORBIFLY Décembre 2007 - Disclaimer

ORBIFLY MET'MAP TEAM :

Programmation & Développement : Alexandra Zaïnal
Conception & Développement : Baudouin d'Aumeries
Co-Programmation & Développement : Marc-Olivier Méhu
Soutien technique & logistique : Manuel Goepfert

Contact : metmap@orbifly.com




SOURCES & CREDITS :

   NOAA